sensor_id;sensor_type;location;lat;lon;timestamp;P1;durP1;ratioP1;P2;durP2;ratioP2
18669;SDS011;9464;44.918;9.670;2023-05-07T00:00:08;2.97;;;2.30;;
18669;SDS011;9464;44.918;9.670;2023-05-07T00:02:37;5.43;;;2.60;;
18669;SDS011;9464;44.918;9.670;2023-05-07T00:05:08;2.07;;;1.87;;
18669;SDS011;9464;44.918;9.670;2023-05-07T00:07:37;2.90;;;2.17;;
18669;SDS011;9464;44.918;9.670;2023-05-07T00:10:07;3.73;;;2.20;;
18669;SDS011;9464;44.918;9.670;2023-05-07T00:12:36;2.87;;;1.97;;
18669;SDS011;9464;44.918;9.670;2023-05-07T00:15:05;2.47;;;2.20;;
18669;SDS011;9464;44.918;9.670;2023-05-07T00:17:34;2.40;;;2.17;;
18669;SDS011;9464;44.918;9.670;2023-05-07T00:20:03;2.27;;;2.07;;
18669;SDS011;9464;44.918;9.670;2023-05-07T00:22:33;2.63;;;2.20;;
18669;SDS011;9464;44.918;9.670;2023-05-07T00:25:02;2.77;;;2.10;;
18669;SDS011;9464;44.918;9.670;2023-05-07T00:27:30;2.07;;;1.83;;
18669;SDS011;9464;44.918;9.670;2023-05-07T00:29:58;2.33;;;2.13;;
18669;SDS011;9464;44.918;9.670;2023-05-07T00:32:27;5.27;;;2.33;;
18669;SDS011;9464;44.918;9.670;2023-05-07T00:34:55;2.70;;;2.37;;
18669;SDS011;9464;44.918;9.670;2023-05-07T00:37:24;2.37;;;2.17;;
18669;SDS011;9464;44.918;9.670;2023-05-07T00:39:53;2.50;;;2.30;;
18669;SDS011;9464;44.918;9.670;2023-05-07T00:42:22;2.67;;;2.47;;
18669;SDS011;9464;44.918;9.670;2023-05-07T00:44:50;3.40;;;1.80;;
18669;SDS011;9464;44.918;9.670;2023-05-07T00:47:19;3.20;;;2.33;;
18669;SDS011;9464;44.918;9.670;2023-05-07T00:49:47;2.50;;;2.00;;
18669;SDS011;9464;44.918;9.670;2023-05-07T00:52:16;2.20;;;2.00;;
18669;SDS011;9464;44.918;9.670;2023-05-07T00:54:45;3.40;;;1.90;;
18669;SDS011;9464;44.918;9.670;2023-05-07T00:57:14;3.67;;;2.17;;
18669;SDS011;9464;44.918;9.670;2023-05-07T00:59:43;4.33;;;1.90;;
18669;SDS011;9464;44.918;9.670;2023-05-07T01:02:12;2.57;;;2.10;;
18669;SDS011;9464;44.918;9.670;2023-05-07T01:04:40;2.07;;;1.87;;
18669;SDS011;9464;44.918;9.670;2023-05-07T01:07:09;2.40;;;2.10;;
18669;SDS011;9464;44.918;9.670;2023-05-07T01:09:37;4.13;;;2.43;;
18669;SDS011;9464;44.918;9.670;2023-05-07T01:12:06;2.57;;;2.30;;
18669;SDS011;9464;44.918;9.670;2023-05-07T01:14:36;3.83;;;2.47;;
18669;SDS011;9464;44.918;9.670;2023-05-07T01:17:05;4.70;;;2.70;;
18669;SDS011;9464;44.918;9.670;2023-05-07T01:19:34;3.07;;;2.60;;
18669;SDS011;9464;44.918;9.670;2023-05-07T01:22:04;5.23;;;2.67;;
18669;SDS011;9464;44.918;9.670;2023-05-07T01:24:37;4.00;;;2.90;;
18669;SDS011;9464;44.918;9.670;2023-05-07T01:27:05;3.87;;;2.70;;
18669;SDS011;9464;44.918;9.670;2023-05-07T01:29:34;2.90;;;2.60;;
18669;SDS011;9464;44.918;9.670;2023-05-07T01:32:02;2.93;;;2.63;;
18669;SDS011;9464;44.918;9.670;2023-05-07T01:34:32;4.07;;;2.60;;
18669;SDS011;9464;44.918;9.670;2023-05-07T01:37:01;3.53;;;2.77;;
18669;SDS011;9464;44.918;9.670;2023-05-07T01:39:30;3.53;;;2.80;;
18669;SDS011;9464;44.918;9.670;2023-05-07T01:42:00;4.87;;;2.80;;
18669;SDS011;9464;44.918;9.670;2023-05-07T01:44:28;2.80;;;2.60;;
18669;SDS011;9464;44.918;9.670;2023-05-07T01:46:57;2.67;;;2.47;;
18669;SDS011;9464;44.918;9.670;2023-05-07T01:49:26;3.87;;;2.50;;
18669;SDS011;9464;44.918;9.670;2023-05-07T01:51:55;3.50;;;2.50;;
18669;SDS011;9464;44.918;9.670;2023-05-07T01:54:25;2.87;;;2.30;;
18669;SDS011;9464;44.918;9.670;2023-05-07T01:56:55;2.83;;;2.07;;
18669;SDS011;9464;44.918;9.670;2023-05-07T01:59:25;2.63;;;2.40;;
18669;SDS011;9464;44.918;9.670;2023-05-07T02:01:54;3.43;;;2.43;;
18669;SDS011;9464;44.918;9.670;2023-05-07T02:04:22;2.53;;;2.17;;
18669;SDS011;9464;44.918;9.670;2023-05-07T02:06:51;2.90;;;2.27;;
18669;SDS011;9464;44.918;9.670;2023-05-07T02:09:20;3.17;;;2.73;;
18669;SDS011;9464;44.918;9.670;2023-05-07T02:11:49;2.97;;;2.20;;
18669;SDS011;9464;44.918;9.670;2023-05-07T02:14:17;4.37;;;2.47;;
18669;SDS011;9464;44.918;9.670;2023-05-07T02:16:47;3.10;;;2.70;;
18669;SDS011;9464;44.918;9.670;2023-05-07T02:19:16;2.33;;;2.20;;
18669;SDS011;9464;44.918;9.670;2023-05-07T02:21:47;2.37;;;2.17;;
18669;SDS011;9464;44.918;9.670;2023-05-07T02:24:16;3.10;;;2.80;;
18669;SDS011;9464;44.918;9.670;2023-05-07T02:26:44;3.30;;;2.90;;
18669;SDS011;9464;44.918;9.670;2023-05-07T02:29:12;3.23;;;2.57;;
18669;SDS011;9464;44.918;9.670;2023-05-07T02:31:41;3.73;;;2.83;;
18669;SDS011;9464;44.918;9.670;2023-05-07T02:34:11;3.80;;;2.60;;
18669;SDS011;9464;44.918;9.670;2023-05-07T02:36:39;2.90;;;2.70;;
18669;SDS011;9464;44.918;9.670;2023-05-07T02:39:07;3.27;;;2.83;;
18669;SDS011;9464;44.918;9.670;2023-05-07T02:41:36;3.67;;;2.60;;
18669;SDS011;9464;44.918;9.670;2023-05-07T02:44:04;5.00;;;3.00;;
18669;SDS011;9464;44.918;9.670;2023-05-07T02:46:32;3.40;;;3.10;;
18669;SDS011;9464;44.918;9.670;2023-05-07T02:49:01;3.00;;;2.50;;
18669;SDS011;9464;44.918;9.670;2023-05-07T02:51:31;3.63;;;2.60;;
18669;SDS011;9464;44.918;9.670;2023-05-07T02:53:59;3.53;;;2.53;;
18669;SDS011;9464;44.918;9.670;2023-05-07T02:56:28;3.93;;;2.70;;
18669;SDS011;9464;44.918;9.670;2023-05-07T02:58:56;3.10;;;2.80;;
18669;SDS011;9464;44.918;9.670;2023-05-07T03:01:25;2.57;;;2.37;;
18669;SDS011;9464;44.918;9.670;2023-05-07T03:03:53;3.03;;;2.60;;
18669;SDS011;9464;44.918;9.670;2023-05-07T03:06:22;2.90;;;2.50;;
18669;SDS011;9464;44.918;9.670;2023-05-07T03:08:52;5.53;;;2.53;;
18669;SDS011;9464;44.918;9.670;2023-05-07T03:11:20;2.87;;;2.43;;
18669;SDS011;9464;44.918;9.670;2023-05-07T03:13:49;2.80;;;2.40;;
18669;SDS011;9464;44.918;9.670;2023-05-07T03:16:17;3.33;;;2.90;;
18669;SDS011;9464;44.918;9.670;2023-05-07T03:18:46;6.43;;;2.80;;
18669;SDS011;9464;44.918;9.670;2023-05-07T03:21:14;2.67;;;2.37;;
18669;SDS011;9464;44.918;9.670;2023-05-07T03:23:43;3.43;;;2.73;;
18669;SDS011;9464;44.918;9.670;2023-05-07T03:26:12;4.70;;;2.40;;
18669;SDS011;9464;44.918;9.670;2023-05-07T03:28:41;2.87;;;2.57;;
18669;SDS011;9464;44.918;9.670;2023-05-07T03:31:09;4.40;;;2.70;;
18669;SDS011;9464;44.918;9.670;2023-05-07T03:33:39;4.37;;;2.67;;
18669;SDS011;9464;44.918;9.670;2023-05-07T03:36:07;4.73;;;2.60;;
18669;SDS011;9464;44.918;9.670;2023-05-07T03:38:35;3.43;;;2.70;;
18669;SDS011;9464;44.918;9.670;2023-05-07T03:41:04;3.50;;;2.33;;
18669;SDS011;9464;44.918;9.670;2023-05-07T03:43:34;3.27;;;2.97;;
18669;SDS011;9464;44.918;9.670;2023-05-07T03:46:02;4.57;;;3.30;;
18669;SDS011;9464;44.918;9.670;2023-05-07T03:48:31;10.63;;;4.00;;
18669;SDS011;9464;44.918;9.670;2023-05-07T03:50:59;6.50;;;4.53;;
18669;SDS011;9464;44.918;9.670;2023-05-07T03:53:28;6.20;;;4.53;;
18669;SDS011;9464;44.918;9.670;2023-05-07T03:55:56;5.03;;;3.80;;
18669;SDS011;9464;44.918;9.670;2023-05-07T03:58:24;4.60;;;4.03;;
18669;SDS011;9464;44.918;9.670;2023-05-07T04:00:54;4.10;;;3.70;;
18669;SDS011;9464;44.918;9.670;2023-05-07T04:03:23;3.87;;;3.43;;
18669;SDS011;9464;44.918;9.670;2023-05-07T04:05:51;5.90;;;3.33;;
18669;SDS011;9464;44.918;9.670;2023-05-07T04:08:20;5.70;;;3.93;;
18669;SDS011;9464;44.918;9.670;2023-05-07T04:10:48;6.67;;;3.73;;
18669;SDS011;9464;44.918;9.670;2023-05-07T04:13:22;4.57;;;4.07;;
18669;SDS011;9464;44.918;9.670;2023-05-07T04:15:50;5.67;;;4.03;;
18669;SDS011;9464;44.918;9.670;2023-05-07T04:18:20;5.40;;;4.07;;
18669;SDS011;9464;44.918;9.670;2023-05-07T04:20:49;4.73;;;3.70;;
18669;SDS011;9464;44.918;9.670;2023-05-07T04:23:17;5.73;;;3.20;;
18669;SDS011;9464;44.918;9.670;2023-05-07T04:25:45;4.40;;;3.97;;
18669;SDS011;9464;44.918;9.670;2023-05-07T04:28:14;5.13;;;3.80;;
18669;SDS011;9464;44.918;9.670;2023-05-07T04:30:42;5.07;;;4.57;;
18669;SDS011;9464;44.918;9.670;2023-05-07T04:33:11;6.73;;;4.60;;
18669;SDS011;9464;44.918;9.670;2023-05-07T04:35:41;7.53;;;4.43;;
18669;SDS011;9464;44.918;9.670;2023-05-07T04:38:09;4.83;;;3.83;;
18669;SDS011;9464;44.918;9.670;2023-05-07T04:40:37;7.47;;;4.50;;
18669;SDS011;9464;44.918;9.670;2023-05-07T04:43:06;4.97;;;3.70;;
18669;SDS011;9464;44.918;9.670;2023-05-07T04:45:35;4.63;;;3.50;;
18669;SDS011;9464;44.918;9.670;2023-05-07T04:48:06;4.73;;;2.80;;
18669;SDS011;9464;44.918;9.670;2023-05-07T04:50:34;3.83;;;3.27;;
18669;SDS011;9464;44.918;9.670;2023-05-07T04:53:04;4.83;;;2.90;;
18669;SDS011;9464;44.918;9.670;2023-05-07T04:55:33;4.13;;;2.63;;
18669;SDS011;9464;44.918;9.670;2023-05-07T04:58:01;3.50;;;2.80;;
18669;SDS011;9464;44.918;9.670;2023-05-07T05:00:31;2.93;;;2.67;;
18669;SDS011;9464;44.918;9.670;2023-05-07T05:02:59;3.27;;;2.70;;
18669;SDS011;9464;44.918;9.670;2023-05-07T05:05:28;3.80;;;2.80;;
18669;SDS011;9464;44.918;9.670;2023-05-07T05:07:56;4.27;;;2.73;;
18669;SDS011;9464;44.918;9.670;2023-05-07T05:10:26;2.93;;;2.63;;
18669;SDS011;9464;44.918;9.670;2023-05-07T05:12:54;4.63;;;3.73;;
18669;SDS011;9464;44.918;9.670;2023-05-07T05:15:23;3.73;;;3.27;;
18669;SDS011;9464;44.918;9.670;2023-05-07T05:17:51;4.63;;;3.60;;
18669;SDS011;9464;44.918;9.670;2023-05-07T05:20:20;9.00;;;4.07;;
18669;SDS011;9464;44.918;9.670;2023-05-07T05:22:48;13.83;;;8.33;;
18669;SDS011;9464;44.918;9.670;2023-05-07T05:25:17;12.57;;;8.73;;
18669;SDS011;9464;44.918;9.670;2023-05-07T05:27:46;11.33;;;8.97;;
18669;SDS011;9464;44.918;9.670;2023-05-07T05:30:15;11.40;;;6.27;;
18669;SDS011;9464;44.918;9.670;2023-05-07T05:32:43;6.37;;;5.43;;
18669;SDS011;9464;44.918;9.670;2023-05-07T05:35:11;5.23;;;4.73;;
18669;SDS011;9464;44.918;9.670;2023-05-07T05:37:40;8.80;;;4.87;;
18669;SDS011;9464;44.918;9.670;2023-05-07T05:40:08;6.07;;;4.13;;
18669;SDS011;9464;44.918;9.670;2023-05-07T05:42:37;5.17;;;4.03;;
18669;SDS011;9464;44.918;9.670;2023-05-07T05:45:08;4.83;;;3.93;;
18669;SDS011;9464;44.918;9.670;2023-05-07T05:47:37;6.63;;;3.87;;
18669;SDS011;9464;44.918;9.670;2023-05-07T05:50:06;5.57;;;3.87;;
18669;SDS011;9464;44.918;9.670;2023-05-07T05:52:35;4.93;;;3.40;;
18669;SDS011;9464;44.918;9.670;2023-05-07T05:55:04;5.47;;;4.30;;
18669;SDS011;9464;44.918;9.670;2023-05-07T05:57:33;6.60;;;3.77;;
18669;SDS011;9464;44.918;9.670;2023-05-07T06:00:01;6.93;;;5.10;;
18669;SDS011;9464;44.918;9.670;2023-05-07T06:02:32;9.40;;;6.67;;
18669;SDS011;9464;44.918;9.670;2023-05-07T06:05:01;12.00;;;9.50;;
18669;SDS011;9464;44.918;9.670;2023-05-07T06:07:30;7.67;;;5.67;;
18669;SDS011;9464;44.918;9.670;2023-05-07T06:09:58;6.90;;;5.90;;
18669;SDS011;9464;44.918;9.670;2023-05-07T06:12:26;9.57;;;6.37;;
18669;SDS011;9464;44.918;9.670;2023-05-07T06:14:55;7.53;;;5.80;;
18669;SDS011;9464;44.918;9.670;2023-05-07T06:17:23;6.33;;;5.50;;
18669;SDS011;9464;44.918;9.670;2023-05-07T06:19:53;6.10;;;4.30;;
18669;SDS011;9464;44.918;9.670;2023-05-07T06:22:21;6.40;;;4.83;;
18669;SDS011;9464;44.918;9.670;2023-05-07T06:24:50;7.80;;;6.20;;
18669;SDS011;9464;44.918;9.670;2023-05-07T06:27:18;10.53;;;7.20;;
18669;SDS011;9464;44.918;9.670;2023-05-07T06:29:47;13.40;;;9.07;;
18669;SDS011;9464;44.918;9.670;2023-05-07T06:32:16;14.03;;;9.13;;
18669;SDS011;9464;44.918;9.670;2023-05-07T06:34:44;19.70;;;13.07;;
18669;SDS011;9464;44.918;9.670;2023-05-07T06:37:14;16.50;;;12.43;;
18669;SDS011;9464;44.918;9.670;2023-05-07T06:39:42;15.40;;;11.27;;
18669;SDS011;9464;44.918;9.670;2023-05-07T06:42:11;14.73;;;10.67;;
18669;SDS011;9464;44.918;9.670;2023-05-07T06:44:39;10.27;;;7.37;;
18669;SDS011;9464;44.918;9.670;2023-05-07T06:47:08;7.40;;;6.00;;
18669;SDS011;9464;44.918;9.670;2023-05-07T06:49:39;10.60;;;5.77;;
18669;SDS011;9464;44.918;9.670;2023-05-07T06:52:07;5.60;;;4.43;;
18669;SDS011;9464;44.918;9.670;2023-05-07T06:54:37;5.60;;;4.40;;
18669;SDS011;9464;44.918;9.670;2023-05-07T06:57:05;9.23;;;4.00;;
18669;SDS011;9464;44.918;9.670;2023-05-07T06:59:34;4.27;;;3.77;;
18669;SDS011;9464;44.918;9.670;2023-05-07T07:02:02;6.33;;;3.77;;
18669;SDS011;9464;44.918;9.670;2023-05-07T07:04:31;6.73;;;4.30;;
18669;SDS011;9464;44.918;9.670;2023-05-07T07:07:00;6.33;;;4.33;;
18669;SDS011;9464;44.918;9.670;2023-05-07T07:09:28;7.90;;;4.87;;
18669;SDS011;9464;44.918;9.670;2023-05-07T07:11:58;8.27;;;4.43;;
18669;SDS011;9464;44.918;9.670;2023-05-07T07:14:26;6.23;;;4.13;;
18669;SDS011;9464;44.918;9.670;2023-05-07T07:16:55;7.10;;;5.53;;
18669;SDS011;9464;44.918;9.670;2023-05-07T07:19:23;6.90;;;5.30;;
18669;SDS011;9464;44.918;9.670;2023-05-07T07:21:52;8.90;;;5.30;;
18669;SDS011;9464;44.918;9.670;2023-05-07T07:24:20;5.87;;;4.57;;
18669;SDS011;9464;44.918;9.670;2023-05-07T07:26:49;9.77;;;6.20;;
18669;SDS011;9464;44.918;9.670;2023-05-07T07:29:18;16.77;;;12.13;;
18669;SDS011;9464;44.918;9.670;2023-05-07T07:31:47;5.13;;;4.30;;
18669;SDS011;9464;44.918;9.670;2023-05-07T07:34:16;6.17;;;3.50;;
18669;SDS011;9464;44.918;9.670;2023-05-07T07:36:44;3.33;;;2.60;;
18669;SDS011;9464;44.918;9.670;2023-05-07T07:39:13;3.23;;;2.47;;
18669;SDS011;9464;44.918;9.670;2023-05-07T07:41:41;2.10;;;1.90;;
18669;SDS011;9464;44.918;9.670;2023-05-07T07:44:10;5.20;;;2.30;;
18669;SDS011;9464;44.918;9.670;2023-05-07T07:46:43;3.57;;;2.20;;
18669;SDS011;9464;44.918;9.670;2023-05-07T07:49:11;4.37;;;2.43;;
18669;SDS011;9464;44.918;9.670;2023-05-07T07:51:40;2.93;;;1.87;;
18669;SDS011;9464;44.918;9.670;2023-05-07T07:54:08;1.77;;;1.67;;
18669;SDS011;9464;44.918;9.670;2023-05-07T07:56:36;3.27;;;1.73;;
18669;SDS011;9464;44.918;9.670;2023-05-07T07:59:05;2.90;;;1.97;;
18669;SDS011;9464;44.918;9.670;2023-05-07T08:01:33;2.43;;;1.70;;
18669;SDS011;9464;44.918;9.670;2023-05-07T08:04:03;2.87;;;2.03;;
18669;SDS011;9464;44.918;9.670;2023-05-07T08:06:32;1.43;;;1.33;;
18669;SDS011;9464;44.918;9.670;2023-05-07T08:09:01;1.27;;;1.17;;
18669;SDS011;9464;44.918;9.670;2023-05-07T08:11:29;1.47;;;1.37;;
18669;SDS011;9464;44.918;9.670;2023-05-07T08:13:58;1.50;;;1.40;;
18669;SDS011;9464;44.918;9.670;2023-05-07T08:16:26;1.57;;;1.47;;
18669;SDS011;9464;44.918;9.670;2023-05-07T08:18:56;1.10;;;1.00;;
18669;SDS011;9464;44.918;9.670;2023-05-07T08:21:25;1.50;;;1.40;;
18669;SDS011;9464;44.918;9.670;2023-05-07T08:23:54;1.53;;;1.30;;
18669;SDS011;9464;44.918;9.670;2023-05-07T08:26:22;1.38;;;1.27;;
18669;SDS011;9464;44.918;9.670;2023-05-07T08:28:51;1.77;;;1.40;;
18669;SDS011;9464;44.918;9.670;2023-05-07T08:31:19;1.85;;;1.45;;
18669;SDS011;9464;44.918;9.670;2023-05-07T08:33:47;1.40;;;1.30;;
18669;SDS011;9464;44.918;9.670;2023-05-07T08:36:16;4.70;;;2.30;;
18669;SDS011;9464;44.918;9.670;2023-05-07T08:38:46;2.53;;;2.33;;
18669;SDS011;9464;44.918;9.670;2023-05-07T08:41:15;2.38;;;2.13;;
18669;SDS011;9464;44.918;9.670;2023-05-07T08:43:45;3.00;;;1.93;;
18669;SDS011;9464;44.918;9.670;2023-05-07T08:46:16;2.30;;;2.00;;
18669;SDS011;9464;44.918;9.670;2023-05-07T08:48:47;2.53;;;1.98;;
18669;SDS011;9464;44.918;9.670;2023-05-07T08:51:16;2.22;;;2.03;;
18669;SDS011;9464;44.918;9.670;2023-05-07T08:53:47;2.47;;;1.90;;
18669;SDS011;9464;44.918;9.670;2023-05-07T08:56:16;2.20;;;1.73;;
18669;SDS011;9464;44.918;9.670;2023-05-07T08:58:48;2.35;;;2.15;;
18669;SDS011;9464;44.918;9.670;2023-05-07T09:01:16;2.00;;;1.80;;
18669;SDS011;9464;44.918;9.670;2023-05-07T09:03:45;5.27;;;2.10;;
18669;SDS011;9464;44.918;9.670;2023-05-07T09:06:14;3.30;;;1.93;;
18669;SDS011;9464;44.918;9.670;2023-05-07T09:08:44;2.50;;;1.98;;
18669;SDS011;9464;44.918;9.670;2023-05-07T09:11:20;2.40;;;2.17;;
18669;SDS011;9464;44.918;9.670;2023-05-07T09:13:52;2.97;;;2.20;;
18669;SDS011;9464;44.918;9.670;2023-05-07T09:16:21;2.30;;;2.10;;
18669;SDS011;9464;44.918;9.670;2023-05-07T09:18:50;3.60;;;2.13;;
18669;SDS011;9464;44.918;9.670;2023-05-07T09:21:19;2.53;;;2.30;;
18669;SDS011;9464;44.918;9.670;2023-05-07T09:23:50;2.40;;;2.20;;
18669;SDS011;9464;44.918;9.670;2023-05-07T09:26:22;4.73;;;2.50;;
18669;SDS011;9464;44.918;9.670;2023-05-07T09:28:50;2.60;;;2.40;;
18669;SDS011;9464;44.918;9.670;2023-05-07T09:31:19;5.67;;;2.43;;
18669;SDS011;9464;44.918;9.670;2023-05-07T09:33:50;6.23;;;3.33;;
18669;SDS011;9464;44.918;9.670;2023-05-07T09:36:18;3.73;;;3.00;;
18669;SDS011;9464;44.918;9.670;2023-05-07T09:38:46;3.77;;;3.10;;
18669;SDS011;9464;44.918;9.670;2023-05-07T09:41:17;5.73;;;4.10;;
18669;SDS011;9464;44.918;9.670;2023-05-07T09:43:48;4.77;;;3.33;;
18669;SDS011;9464;44.918;9.670;2023-05-07T09:46:24;4.33;;;3.23;;
18669;SDS011;9464;44.918;9.670;2023-05-07T09:48:53;3.93;;;2.97;;
18669;SDS011;9464;44.918;9.670;2023-05-07T09:51:25;5.73;;;3.50;;
18669;SDS011;9464;44.918;9.670;2023-05-07T09:53:57;7.22;;;3.20;;
18669;SDS011;9464;44.918;9.670;2023-05-07T09:56:27;3.78;;;3.10;;
18669;SDS011;9464;44.918;9.670;2023-05-07T09:58:57;5.07;;;3.37;;
18669;SDS011;9464;44.918;9.670;2023-05-07T10:01:26;3.47;;;2.87;;
18669;SDS011;9464;44.918;9.670;2023-05-07T10:03:55;5.33;;;3.70;;
18669;SDS011;9464;44.918;9.670;2023-05-07T10:06:24;4.37;;;3.30;;
18669;SDS011;9464;44.918;9.670;2023-05-07T10:08:53;6.30;;;4.17;;
18669;SDS011;9464;44.918;9.670;2023-05-07T10:11:22;3.40;;;3.10;;
18669;SDS011;9464;44.918;9.670;2023-05-07T10:13:51;4.70;;;3.73;;
18669;SDS011;9464;44.918;9.670;2023-05-07T10:16:21;5.10;;;3.77;;
18669;SDS011;9464;44.918;9.670;2023-05-07T10:18:50;6.27;;;3.93;;
18669;SDS011;9464;44.918;9.670;2023-05-07T10:21:19;4.82;;;3.53;;
18669;SDS011;9464;44.918;9.670;2023-05-07T10:23:49;5.10;;;3.60;;
18669;SDS011;9464;44.918;9.670;2023-05-07T10:26:18;4.67;;;3.67;;
18669;SDS011;9464;44.918;9.670;2023-05-07T10:28:49;4.53;;;3.57;;
18669;SDS011;9464;44.918;9.670;2023-05-07T10:31:23;3.73;;;3.07;;
18669;SDS011;9464;44.918;9.670;2023-05-07T10:33:58;3.67;;;3.10;;
18669;SDS011;9464;44.918;9.670;2023-05-07T10:36:27;3.70;;;3.20;;
18669;SDS011;9464;44.918;9.670;2023-05-07T10:38:57;4.37;;;3.70;;
18669;SDS011;9464;44.918;9.670;2023-05-07T10:41:25;4.47;;;3.57;;
18669;SDS011;9464;44.918;9.670;2023-05-07T10:43:53;4.50;;;3.77;;
18669;SDS011;9464;44.918;9.670;2023-05-07T10:46:23;4.40;;;4.00;;
18669;SDS011;9464;44.918;9.670;2023-05-07T10:49:08;4.33;;;3.17;;
18669;SDS011;9464;44.918;9.670;2023-05-07T10:51:38;3.70;;;3.03;;
18669;SDS011;9464;44.918;9.670;2023-05-07T10:54:20;7.85;;;3.45;;
18669;SDS011;9464;44.918;9.670;2023-05-07T10:56:50;5.20;;;3.57;;
18669;SDS011;9464;44.918;9.670;2023-05-07T10:59:31;4.05;;;3.03;;
18669;SDS011;9464;44.918;9.670;2023-05-07T11:02:01;4.60;;;3.40;;
18669;SDS011;9464;44.918;9.670;2023-05-07T11:04:32;3.90;;;3.00;;
18669;SDS011;9464;44.918;9.670;2023-05-07T11:09:55;4.40;;;3.40;;
18669;SDS011;9464;44.918;9.670;2023-05-07T11:15:14;4.53;;;3.47;;
18669;SDS011;9464;44.918;9.670;2023-05-07T11:17:53;3.47;;;2.63;;
18669;SDS011;9464;44.918;9.670;2023-05-07T11:20:38;6.85;;;2.92;;
18669;SDS011;9464;44.918;9.670;2023-05-07T11:25:58;3.47;;;2.80;;
18669;SDS011;9464;44.918;9.670;2023-05-07T11:28:27;4.88;;;3.05;;
18669;SDS011;9464;44.918;9.670;2023-05-07T11:30:55;5.07;;;2.90;;
18669;SDS011;9464;44.918;9.670;2023-05-07T11:33:25;5.72;;;3.05;;
18669;SDS011;9464;44.918;9.670;2023-05-07T11:35:54;2.85;;;2.53;;
18669;SDS011;9464;44.918;9.670;2023-05-07T11:38:23;3.58;;;2.92;;
18669;SDS011;9464;44.918;9.670;2023-05-07T11:40:51;3.20;;;2.83;;
18669;SDS011;9464;44.918;9.670;2023-05-07T11:43:20;6.78;;;2.78;;
18669;SDS011;9464;44.918;9.670;2023-05-07T11:45:48;2.55;;;2.28;;
18669;SDS011;9464;44.918;9.670;2023-05-07T11:48:17;2.78;;;2.33;;
18669;SDS011;9464;44.918;9.670;2023-05-07T11:50:59;2.53;;;2.30;;
18669;SDS011;9464;44.918;9.670;2023-05-07T11:53:34;2.50;;;2.30;;
18669;SDS011;9464;44.918;9.670;2023-05-07T11:56:06;2.60;;;2.38;;
18669;SDS011;9464;44.918;9.670;2023-05-07T11:58:35;3.28;;;1.90;;
18669;SDS011;9464;44.918;9.670;2023-05-07T12:01:03;2.92;;;2.40;;
18669;SDS011;9464;44.918;9.670;2023-05-07T12:03:32;2.53;;;1.98;;
18669;SDS011;9464;44.918;9.670;2023-05-07T12:06:03;3.63;;;2.33;;
18669;SDS011;9464;44.918;9.670;2023-05-07T12:08:35;2.33;;;2.05;;
18669;SDS011;9464;44.918;9.670;2023-05-07T12:11:06;3.42;;;2.30;;
18669;SDS011;9464;44.918;9.670;2023-05-07T12:13:35;3.35;;;2.10;;
18669;SDS011;9464;44.918;9.670;2023-05-07T12:16:04;1.92;;;1.83;;
18669;SDS011;9464;44.918;9.670;2023-05-07T12:18:36;3.20;;;2.30;;
18669;SDS011;9464;44.918;9.670;2023-05-07T12:21:06;3.17;;;2.50;;
18669;SDS011;9464;44.918;9.670;2023-05-07T12:23:35;2.38;;;2.17;;
18669;SDS011;9464;44.918;9.670;2023-05-07T12:26:04;2.95;;;2.08;;
18669;SDS011;9464;44.918;9.670;2023-05-07T12:28:36;4.70;;;2.38;;
18669;SDS011;9464;44.918;9.670;2023-05-07T12:31:06;2.30;;;2.08;;
18669;SDS011;9464;44.918;9.670;2023-05-07T12:33:34;2.75;;;1.90;;
18669;SDS011;9464;44.918;9.670;2023-05-07T12:36:03;5.63;;;2.13;;
18669;SDS011;9464;44.918;9.670;2023-05-07T12:38:37;2.05;;;1.88;;
18669;SDS011;9464;44.918;9.670;2023-05-07T12:41:07;3.78;;;2.20;;
18669;SDS011;9464;44.918;9.670;2023-05-07T12:43:36;2.80;;;2.08;;
18669;SDS011;9464;44.918;9.670;2023-05-07T12:46:06;2.60;;;2.08;;
18669;SDS011;9464;44.918;9.670;2023-05-07T12:48:36;3.30;;;2.55;;
18669;SDS011;9464;44.918;9.670;2023-05-07T12:51:05;2.60;;;1.95;;
18669;SDS011;9464;44.918;9.670;2023-05-07T12:53:33;5.38;;;3.33;;
18669;SDS011;9464;44.918;9.670;2023-05-07T12:56:09;2.53;;;2.28;;
18669;SDS011;9464;44.918;9.670;2023-05-07T12:58:38;4.60;;;2.10;;
18669;SDS011;9464;44.918;9.670;2023-05-07T13:01:07;2.17;;;2.03;;
18669;SDS011;9464;44.918;9.670;2023-05-07T13:03:37;2.22;;;1.90;;
18669;SDS011;9464;44.918;9.670;2023-05-07T13:06:07;2.65;;;2.20;;
18669;SDS011;9464;44.918;9.670;2023-05-07T13:08:39;2.63;;;2.42;;
18669;SDS011;9464;44.918;9.670;2023-05-07T13:11:10;2.10;;;1.90;;
18669;SDS011;9464;44.918;9.670;2023-05-07T13:13:39;2.38;;;1.98;;
18669;SDS011;9464;44.918;9.670;2023-05-07T13:16:09;3.47;;;2.08;;
18669;SDS011;9464;44.918;9.670;2023-05-07T13:18:39;2.40;;;2.20;;
18669;SDS011;9464;44.918;9.670;2023-05-07T13:21:10;5.47;;;2.60;;
18669;SDS011;9464;44.918;9.670;2023-05-07T13:23:40;2.67;;;2.20;;
18669;SDS011;9464;44.918;9.670;2023-05-07T13:26:08;3.58;;;2.63;;
18669;SDS011;9464;44.918;9.670;2023-05-07T13:28:52;3.45;;;2.60;;
18669;SDS011;9464;44.918;9.670;2023-05-07T13:31:21;3.95;;;2.50;;
18669;SDS011;9464;44.918;9.670;2023-05-07T13:33:49;2.17;;;1.98;;
18669;SDS011;9464;44.918;9.670;2023-05-07T13:36:19;3.40;;;2.95;;
18669;SDS011;9464;44.918;9.670;2023-05-07T13:38:47;2.50;;;2.30;;
18669;SDS011;9464;44.918;9.670;2023-05-07T13:41:16;2.55;;;2.35;;
18669;SDS011;9464;44.918;9.670;2023-05-07T13:43:44;4.30;;;2.28;;
18669;SDS011;9464;44.918;9.670;2023-05-07T13:46:15;5.00;;;2.50;;
18669;SDS011;9464;44.918;9.670;2023-05-07T13:48:43;2.60;;;2.40;;
18669;SDS011;9464;44.918;9.670;2023-05-07T13:51:11;2.50;;;2.30;;
18669;SDS011;9464;44.918;9.670;2023-05-07T13:53:40;2.50;;;2.22;;
18669;SDS011;9464;44.918;9.670;2023-05-07T13:56:08;3.25;;;2.55;;
18669;SDS011;9464;44.918;9.670;2023-05-07T13:58:37;3.30;;;2.55;;
18669;SDS011;9464;44.918;9.670;2023-05-07T14:01:25;4.40;;;2.88;;
18669;SDS011;9464;44.918;9.670;2023-05-07T14:03:55;2.50;;;2.30;;
18669;SDS011;9464;44.918;9.670;2023-05-07T14:06:24;2.95;;;2.03;;
18669;SDS011;9464;44.918;9.670;2023-05-07T14:08:52;2.50;;;2.30;;
18669;SDS011;9464;44.918;9.670;2023-05-07T14:11:20;2.70;;;2.28;;
18669;SDS011;9464;44.918;9.670;2023-05-07T14:13:49;3.63;;;2.20;;
18669;SDS011;9464;44.918;9.670;2023-05-07T14:16:17;2.45;;;2.25;;
18669;SDS011;9464;44.918;9.670;2023-05-07T14:18:47;3.95;;;2.17;;
18669;SDS011;9464;44.918;9.670;2023-05-07T14:21:16;2.28;;;2.08;;
18669;SDS011;9464;44.918;9.670;2023-05-07T14:23:44;3.33;;;2.08;;
18669;SDS011;9464;44.918;9.670;2023-05-07T14:26:13;3.17;;;2.20;;
18669;SDS011;9464;44.918;9.670;2023-05-07T14:28:42;4.93;;;2.42;;
18669;SDS011;9464;44.918;9.670;2023-05-07T14:31:12;6.25;;;3.45;;
18669;SDS011;9464;44.918;9.670;2023-05-07T14:33:41;4.20;;;2.20;;
18669;SDS011;9464;44.918;9.670;2023-05-07T14:36:11;2.65;;;2.17;;
18669;SDS011;9464;44.918;9.670;2023-05-07T14:38:39;3.33;;;2.58;;
18669;SDS011;9464;44.918;9.670;2023-05-07T14:41:07;2.97;;;1.80;;
18669;SDS011;9464;44.918;9.670;2023-05-07T14:43:36;2.22;;;1.92;;
18669;SDS011;9464;44.918;9.670;2023-05-07T14:46:04;3.53;;;2.13;;
18669;SDS011;9464;44.918;9.670;2023-05-07T14:48:33;2.45;;;2.25;;
18669;SDS011;9464;44.918;9.670;2023-05-07T14:51:01;2.53;;;2.33;;
18669;SDS011;9464;44.918;9.670;2023-05-07T14:53:31;2.78;;;2.47;;
18669;SDS011;9464;44.918;9.670;2023-05-07T14:55:59;3.72;;;2.50;;
18669;SDS011;9464;44.918;9.670;2023-05-07T14:58:28;2.65;;;2.28;;
18669;SDS011;9464;44.918;9.670;2023-05-07T15:00:56;2.70;;;2.13;;
18669;SDS011;9464;44.918;9.670;2023-05-07T15:03:25;2.97;;;2.60;;
18669;SDS011;9464;44.918;9.670;2023-05-07T15:05:53;2.75;;;2.10;;
18669;SDS011;9464;44.918;9.670;2023-05-07T15:08:22;3.20;;;2.33;;
18669;SDS011;9464;44.918;9.670;2023-05-07T15:10:52;3.35;;;2.42;;
18669;SDS011;9464;44.918;9.670;2023-05-07T15:13:21;3.10;;;2.55;;
18669;SDS011;9464;44.918;9.670;2023-05-07T15:15:49;4.53;;;2.30;;
18669;SDS011;9464;44.918;9.670;2023-05-07T15:18:18;3.47;;;2.60;;
18669;SDS011;9464;44.918;9.670;2023-05-07T15:20:48;3.22;;;2.30;;